NOTL Parkway

*Note: All times are displayed in the local standard time of the station location.
**Rain - Equipment is designed to accurately record liquid precipitation; under conditions when precipitation is not in liquid form, the data displayed may not properly reflect rainfall values.

Date Max Temp
(°C)
Min Temp
(°C)
Avg Temp
(°C)
Rain (mm) Avg RH (%)
Sun, Dec 10, 2017 -0.6 -2.2 -1.4 0.0 73.5
Sat, Dec 09, 2017 1.7 -3.0 -0.6 0.0 66.3
Fri, Dec 08, 2017 0.4 -4.5 -1.5 0.0 65.3
Thu, Dec 07, 2017 1.5 -3.2 -0.4 0.0 66.2
Wed, Dec 06, 2017 4.2 -0.7 1.7 0.0 57.1
Tue, Dec 05, 2017 11.8 1.1 8.1 4.6 72.5
Mon, Dec 04, 2017 11.4 -4.0 4.9 0.2 74.9
DateTime Avg Temp (°C) Rain (mm) RH (%)
Mon, Dec 11, 2017 02:00 -1.9 0.0 83.3
Mon, Dec 11, 2017 01:00 -1.1 0.0 81.3
Mon, Dec 11, 2017 00:00 -1.6 0.0 78.5
Sun, Dec 10, 2017 23:00 -1.9 0.0 76.0
Sun, Dec 10, 2017 22:00 -1.8 0.0 74.5
Sun, Dec 10, 2017 21:00 -1.7 0.0 72.8
Sun, Dec 10, 2017 20:00 -1.6 0.0 71.3
Sun, Dec 10, 2017 19:00 -1.4 0.0 67.0
Sun, Dec 10, 2017 18:00 -1.3 0.0 66.0
Sun, Dec 10, 2017 17:00 -1.2 0.0 69.0
Sun, Dec 10, 2017 16:00 -1.1 0.0 68.5
Sun, Dec 10, 2017 15:00 -1.0 0.0 69.5
Sun, Dec 10, 2017 14:00 -1.0 0.0 69.3
Sun, Dec 10, 2017 13:00 -1.1 0.0 69.5
Sun, Dec 10, 2017 12:00 -1.2 0.0 64.8
Sun, Dec 10, 2017 11:00 -1.7 0.0 65.8
Sun, Dec 10, 2017 10:00 -2.0 0.0 66.3
Sun, Dec 10, 2017 09:00 -2.2 0.0 65.3
Sun, Dec 10, 2017 08:00 -1.9 0.0 69.8
Sun, Dec 10, 2017 07:00 -1.1 0.0 71.5
Sun, Dec 10, 2017 06:00 -0.9 0.0 71.8
Sun, Dec 10, 2017 05:00 -0.7 0.0 77.0
Sun, Dec 10, 2017 04:00 -0.9 0.0 87.3
Sun, Dec 10, 2017 03:00 -1.9 0.0 90.8
Sun, Dec 10, 2017 02:00 -1.7 0.0 90.0
Sun, Dec 10, 2017 01:00 -1.9 0.0 91.8
Sun, Dec 10, 2017 00:00 -2.9 0.0 92.3
Sat, Dec 09, 2017 23:00 -2.9 0.0 89.5
Sat, Dec 09, 2017 22:00 -2.1 0.0 82.5
Sat, Dec 09, 2017 21:00 -0.9 0.0 73.5
Sat, Dec 09, 2017 20:00 -0.5 0.0 68.8
Sat, Dec 09, 2017 19:00 -1.3 0.0 70.3
Sat, Dec 09, 2017 18:00 -1.3 0.0 67.8
Sat, Dec 09, 2017 17:00 -0.4 0.0 61.5
Sat, Dec 09, 2017 16:00 0.8 0.0 54.8
Sat, Dec 09, 2017 15:00 1.0 0.0 51.3
Sat, Dec 09, 2017 14:00 1.5 0.0 53.0
Sat, Dec 09, 2017 13:00 1.0 0.0 53.5
Sat, Dec 09, 2017 12:00 1.1 0.0 55.5
Sat, Dec 09, 2017 11:00 0.3 0.0 62.0
Sat, Dec 09, 2017 10:00 -0.9 0.0 67.0
Sat, Dec 09, 2017 09:00 -1.7 0.0 71.5
Sat, Dec 09, 2017 08:00 -1.6 0.0 74.0
Sat, Dec 09, 2017 07:00 -0.6 0.0 75.0
Sat, Dec 09, 2017 06:00 -0.7 0.0 73.5
Sat, Dec 09, 2017 05:00 -0.5 0.0 63.0
Sat, Dec 09, 2017 04:00 -0.5 0.0 57.8
Sat, Dec 09, 2017 03:00 -0.4 0.0 56.8


asterix Register now to access more data! asterix